Latest Weather Observations for Yanco

IDN60801

Issued at 11:05 pm EDT Monday 24 November 2014 (issued every 30 minutes, with the page automatically refreshed every 10 minutes)

About weather observations | Map of weather stations | Latest weather observations for NSW | Other Formats
Station Details ID: 074037 Name: YANCO AGRICULTURAL INSTITUTE Lat: -34.62 Lon: 146.43 Height: 164.0 m
Data from the previous 72 hours. | See also: Recent months at Yanco
Date/Time
EDT
Temp
°C
App
Temp
°C
Dew
Point
Rel
Hum
%
Delta-T
°C
Wind Press
QNH
hPa
Press
MSL
hPa
Rain
since 9 am
mm
Dir
 
Spd
km/h
Gust
km/h
Spd
kts
Gust
kts
24/11:00pm 20.0 20.2 17.6 86 1.5 WSW 13 26 7 14 - - 3.2
24/10:30pm 19.9 20.5 17.7 87 1.4 WSW 11 17 6 9 - - 3.2
24/10:00pm 20.1 20.1 17.3 84 1.7 W 13 20 7 11 - - 3.2
24/09:30pm 20.1 19.8 16.5 80 2.2 W 13 24 7 13 - - 3.2
24/09:11pm 20.3 17.2 16.5 79 2.3 W 28 48 15 26 - - 3.2
24/09:00pm 19.8 19.7 17.0 84 1.7 NNW 13 19 7 10 - - 3.2
24/08:30pm 20.3 18.7 17.5 84 1.7 WNW 22 35 12 19 - - 3.2
24/08:24pm 20.1 18.6 17.7 86 1.5 W 22 35 12 19 - - 3.2
24/08:00pm 20.2 14.3 17.2 83 1.8 WSW 44 65 24 35 - - 2.8
24/07:30pm 21.0 15.3 16.2 74 2.9 W 41 70 22 38 - - 1.8
24/07:27pm 26.0 21.8 17.1 58 5.6 W 35 70 19 38 - - 1.0
24/07:00pm 27.3 27.6 17.8 56 6.0 N 13 22 7 12 - - 1.0
24/06:30pm 28.1 27.0 17.3 52 6.8 NNW 19 28 10 15 - - 1.0
24/06:00pm 28.1 27.1 17.6 53 6.7 N 19 28 10 15 - - 1.0
24/05:30pm 26.7 25.9 18.0 59 5.5 N 19 24 10 13 - - 1.0
24/05:00pm 26.8 26.7 17.8 57 5.7 N 15 22 8 12 - - 1.0
24/04:30pm 26.2 25.3 18.1 61 5.2 NNE 20 33 11 18 - - 1.0
24/04:00pm 25.9 25.0 18.3 63 4.8 NNE 20 30 11 16 - - 1.0
24/03:30pm 24.6 23.2 18.8 70 3.7 NNE 24 33 13 18 - - 1.0
24/03:00pm 24.5 23.5 18.0 67 4.1 NNE 20 32 11 17 - - 1.0
24/02:30pm 23.9 23.5 19.0 74 3.1 NNE 19 26 10 14 - - 1.0
24/02:00pm 22.7 23.9 19.9 84 1.8 NE 13 20 7 11 - - 1.0
24/01:30pm 22.5 22.5 19.7 84 1.8 NE 19 24 10 13 - - 1.0
24/01:00pm 21.6 24.2 19.2 86 1.5 SSE 4 7 2 4 - - 1.0
24/12:30pm 21.4 23.3 19.7 90 1.1 SSW 9 13 5 7 - - 0.8
24/12:00pm 21.8 22.5 19.7 88 1.3 SW 15 20 8 11 - - 0.6
24/11:30am 21.9 23.3 19.5 86 1.5 SW 11 13 6 7 - - 0.6
24/11:00am 23.1 22.2 18.2 74 3.1 WSW 20 30 11 16 - - 0.2
24/10:30am 23.0 24.3 19.2 79 2.4 SW 11 13 6 7 - - 0.2
24/10:00am 23.5 25.1 19.2 77 2.8 SSW 9 15 5 8 - - 0.2
24/09:30am 22.6 22.8 18.6 78 2.5 ENE 15 19 8 10 - - 0.2
24/09:00am 22.9 23.9 17.8 73 3.2 NE 9 11 5 6 - - 5.6
24/08:30am 22.3 23.9 17.9 76 2.8 NE 6 9 3 5 - - 5.0
24/08:00am 22.2 24.1 19.0 82 2.0 E 7 9 4 5 - - 4.8
24/07:30am 22.2 22.4 16.7 71 3.4 NE 11 15 6 8 - - 4.6
24/07:00am 21.4 20.1 16.8 75 2.8 NE 19 24 10 13 - - 4.2
24/06:30am 21.0 20.0 16.6 76 2.7 NE 17 20 9 11 - - 3.6
24/06:00am 19.9 21.3 17.7 87 1.4 NNE 7 9 4 5 - - 3.0
24/05:30am 21.4 21.8 15.3 68 3.6 NE 7 17 4 9 - - 1.6
24/05:00am 22.1 20.0 13.5 58 5.0 NE 17 22 9 12 - - 0.8
24/04:30am 22.2 20.9 13.8 59 4.9 ENE 13 20 7 11 - - 0.4
24/04:00am 23.3 21.9 12.3 50 6.3 ESE 11 17 6 9 - - 0.2
24/03:30am 23.8 22.2 11.5 46 7.0 SE 11 15 6 8 - - 0.2
24/03:00am 25.1 21.2 9.4 37 8.6 S 20 28 11 15 - - 0.0
24/02:30am 26.5 22.4 8.0 31 10.0 SSE 19 26 10 14 - - 0.0
24/02:00am 26.4 23.7 8.8 33 9.6 SSW 13 22 7 12 - - 0.0
24/01:30am 26.5 24.9 10.2 36 9.2 WSW 9 15 5 8 - - 0.0
24/01:00am 26.0 25.4 11.7 41 8.2 N 6 13 3 7 - - 0.0
24/12:30am 26.1 25.6 10.7 38 8.7 WSW 4 9 2 5 - - 0.0
24/12:00am 28.4 27.9 9.2 30 10.7 SSE 2 2 1 1 - - 0.0
 
Date/Time
EDT
Temp
°C
App
Temp
°C
Dew
Point
Rel
Hum
%
Delta-T
°C
Wind Press
QNH
hPa
Press
MSL
hPa
Rain
since 9 am
mm
Dir
 
Spd
km/h
Gust
km/h
Spd
kts
Gust
kts
23/11:30pm 28.8 27.1 8.5 28 11.2 ESE 7 9 4 5 - - 0.0
23/11:00pm 29.3 26.7 7.8 26 11.8 S 11 15 6 8 - - 0.0
23/10:30pm 29.2 27.9 7.7 26 11.7 ESE 4 7 2 4 - - 0.0
23/10:00pm 29.7 27.4 7.6 25 12.1 S 9 11 5 6 - - 0.0
23/09:30pm 30.5 27.1 7.7 24 12.5 SW 15 20 8 11 - - 0.0
23/09:00pm 30.9 25.0 7.4 23 12.9 SW 28 37 15 20 - - 0.0
23/08:30pm 31.7 25.5 8.0 23 13.2 SW 30 41 16 22 - - 0.0
23/08:00pm 32.5 26.1 8.7 23 13.4 WSW 32 44 17 24 - - 0.0
23/07:30pm 33.4 27.9 10.7 25 13.3 SW 30 37 16 20 - - 0.0
23/07:00pm 33.9 28.6 11.1 25 13.4 SW 30 41 16 22 - - 0.0
23/06:30pm 35.2 28.9 10.9 23 14.3 SW 35 46 19 25 - - 0.0
23/06:00pm 35.6 29.7 11.3 23 14.5 SW 33 43 18 23 - - 0.0
23/05:30pm 37.1 31.7 9.6 19 16.1 SW 28 37 15 20 - - 0.0
23/05:00pm 38.0 32.2 9.6 18 16.6 SW 30 37 16 20 - - 0.0
23/04:30pm 38.5 34.0 10.0 18 16.8 W 24 41 13 22 - - 0.0
23/04:00pm 40.5 35.2 9.8 16 18.2 WSW 28 39 15 21 - - 0.0
23/03:30pm 39.7 36.7 9.2 16 17.9 W 15 26 8 14 - - 0.0
23/03:00pm 39.3 35.7 9.8 17 17.4 W 19 24 10 13 - - 0.0
23/02:30pm 39.2 36.3 9.7 17 17.4 W 15 30 8 16 - - 0.0
23/02:00pm 39.3 36.1 9.8 17 17.4 W 17 19 9 10 - - 0.0
23/01:30pm 39.0 35.1 9.5 17 17.3 WNW 20 32 11 17 - - 0.0
23/01:00pm 37.4 33.6 9.9 19 16.1 WNW 20 32 11 17 - - 0.0
23/12:30pm 37.0 33.0 10.3 20 15.7 WNW 22 32 12 17 - - 0.0
23/12:00pm 36.3 33.1 9.8 20 15.5 WNW 17 28 9 15 - - 0.0
23/11:30am 35.8 33.0 10.1 21 15.0 W 15 24 8 13 - - 0.0
23/11:00am 34.2 31.6 9.4 22 14.3 WNW 13 20 7 11 - - 0.0
23/10:30am 34.0 32.5 9.3 22 14.2 W 7 17 4 9 - - 0.0
23/10:00am 32.7 31.9 9.5 24 13.3 N 4 7 2 4 - - 0.0
23/09:30am 31.7 30.4 9.3 25 12.7 E 6 13 3 7 - - 0.0
23/09:00am 30.3 28.3 8.7 26 12.1 E 9 13 5 7 - - 0.0
23/08:30am 29.2 27.2 8.8 28 11.3 SE 9 15 5 8 - - 0.0
23/08:00am 27.0 24.6 10.2 35 9.5 ESE 13 20 7 11 - - 0.0
23/07:30am 24.2 21.5 10.5 42 7.6 ESE 15 20 8 11 - - 0.0
23/07:00am 22.5 19.4 10.3 46 6.7 E 17 20 9 11 - - 0.0
23/06:30am 21.8 18.6 10.0 47 6.4 E 17 20 9 11 - - 0.0
23/06:00am 22.5 19.7 10.0 45 6.9 E 15 19 8 10 - - 0.0
23/05:30am 21.1 18.5 10.6 51 5.8 SE 15 19 8 10 - - 0.0
23/05:00am 21.2 19.1 11.0 52 5.7 SE 13 15 7 8 - - 0.0
23/04:30am 21.9 19.8 11.0 50 6.1 SE 13 17 7 9 - - 0.0
23/04:00am 21.6 20.4 11.6 53 5.6 ESE 9 13 5 7 - - 0.0
23/03:30am 23.5 21.0 11.2 46 6.9 E 15 19 8 10 - - 0.0
23/03:00am 23.1 20.5 12.1 50 6.3 ENE 17 24 9 13 - - 0.0
23/02:30am 23.0 21.3 12.6 52 6.0 E 13 19 7 10 - - 0.0
23/02:00am 22.8 22.8 14.1 58 5.1 NE 7 15 4 8 - - 0.0
23/01:30am 23.7 23.2 12.0 48 6.7 SSE 6 7 3 4 - - 0.0
23/01:00am 24.0 22.3 12.3 48 6.7 E 13 17 7 9 - - 0.0
23/12:30am 23.9 22.7 10.2 42 7.6 NNW 7 13 4 7 - - 0.0
23/12:00am 25.1 24.2 9.4 37 8.6 SSE 4 9 2 5 - - 0.0
 
Date/Time
EDT
Temp
°C
App
Temp
°C
Dew
Point
Rel
Hum
%
Delta-T
°C
Wind Press
QNH
hPa
Press
MSL
hPa
Rain
since 9 am
mm
Dir
 
Spd
km/h
Gust
km/h
Spd
kts
Gust
kts
22/11:30pm 25.9 24.4 9.3 35 9.2 ESE 7 13 4 7 - - 0.0
22/11:00pm 26.0 24.6 9.4 35 9.2 SE 7 11 4 6 - - 0.0
22/10:30pm 26.9 24.7 9.3 33 9.8 S 11 20 6 11 - - 0.0
22/10:00pm 27.2 24.2 9.1 32 10.0 S 15 20 8 11 - - 0.0
22/09:30pm 28.6 24.5 7.8 27 11.3 S 19 32 10 17 - - 0.0
22/09:00pm 29.3 24.7 5.4 22 12.6 S 19 24 10 13 - - 0.0
22/08:30pm 29.4 26.5 4.8 21 12.8 S 9 11 5 6 - - 0.0
22/08:00pm 30.7 27.4 4.4 19 13.7 S 11 15 6 8 - - 0.0
22/07:30pm 31.9 27.5 4.6 18 14.4 S 17 20 9 11 - - 0.0
22/07:00pm 32.9 28.5 4.6 17 15.0 SSW 17 22 9 12 - - 0.0
22/06:30pm 34.8 32.2 4.4 15 16.2 SSW 7 15 4 8 - - 0.0
22/06:00pm 34.9 32.0 4.4 15 16.3 WSW 9 19 5 10 - - 0.0
22/05:30pm 35.3 31.7 4.8 15 16.4 SSW 13 20 7 11 - - 0.0
22/05:00pm 35.2 32.7 3.7 14 16.6 S 6 15 3 8 - - 0.0
22/04:30pm 34.5 31.5 4.1 15 16.1 WSW 9 20 5 11 - - 0.0
22/04:00pm 34.3 30.3 4.9 16 15.8 WSW 15 26 8 14 - - 0.0
22/03:30pm 33.9 31.7 6.3 18 15.1 SW 7 19 4 10 - - 0.0
22/03:00pm 34.0 30.7 6.3 18 15.2 W 13 19 7 10 - - 0.0
22/02:30pm 34.4 30.8 6.7 18 15.3 W 15 26 8 14 - - 0.0
22/02:00pm 34.2 29.4 5.7 17 15.5 WNW 20 39 11 21 - - 0.0
22/01:30pm 33.8 29.0 5.4 17 15.3 WSW 20 24 11 13 - - 0.0
22/01:00pm 33.3 29.5 5.8 18 14.9 WNW 15 30 8 16 - - 0.0
22/12:30pm 32.3 28.9 5.7 19 14.3 NNW 13 20 7 11 - - 0.0
22/12:00pm 32.1 28.0 6.3 20 14.0 NNW 17 28 9 15 - - 0.0
22/11:30am 31.7 28.6 7.4 22 13.4 N 13 22 7 12 - - 0.0
22/11:00am 30.7 27.6 7.2 23 12.8 N 13 20 7 11 - - 0.0
22/10:30am 30.0 26.9 7.2 24 12.4 N 13 19 7 10 - - 0.0
22/10:00am 29.3 26.8 6.7 24 12.1 N 9 17 5 9 - - 0.0
22/09:30am 28.5 26.4 6.0 24 11.9 ENE 6 11 3 6 - - 0.0
22/09:00am 27.6 24.7 6.4 26 11.2 E 11 17 6 9 - - 0.0
22/08:30am 25.8 23.0 6.9 30 10.0 E 11 17 6 9 - - 0.0
22/08:00am 23.8 21.4 7.0 34 8.8 E 9 13 5 7 - - 0.0
22/07:30am 21.8 19.3 6.5 37 7.8 E 9 13 5 7 - - 0.0
22/07:00am 20.6 18.0 6.2 39 7.3 E 9 13 5 7 - - 0.0
22/06:30am 18.9 16.7 6.4 44 6.3 E 7 9 4 5 - - 0.0
22/06:00am 17.3 15.3 6.2 48 5.5 ESE 6 7 3 4 - - 0.0
22/05:30am 19.0 16.4 6.2 43 6.4 ESE 9 11 5 6 - - 0.0
22/05:00am 18.7 16.2 6.5 45 6.1 E 9 11 5 6 - - 0.0
22/04:30am 18.7 16.2 6.5 45 6.1 E 9 11 5 6 - - 0.0
22/04:00am 19.5 17.2 5.6 40 6.9 ESE 7 9 4 5 - - 0.0
22/03:30am 19.1 17.2 6.6 44 6.3 ESE 6 7 3 4 - - 0.0
22/03:00am 20.0 17.8 6.0 40 7.0 SE 7 9 4 5 - - 0.0
22/02:30am 20.4 18.2 6.0 39 7.2 SE 7 9 4 5 - - 0.0
22/02:00am 20.6 18.4 6.2 39 7.3 SE 7 9 4 5 - - 0.0
22/01:30am 20.4 18.3 6.7 41 7.0 SE 7 9 4 5 - - 0.0
22/01:00am 20.8 18.7 6.7 40 7.2 SSE 7 9 4 5 - - 0.0
22/12:30am 21.6 18.7 6.3 37 7.8 SSE 11 13 6 7 - - 0.0
22/12:00am 21.6 19.6 7.1 39 7.5 S 7 9 4 5 - - 0.0
 
Date/Time
EDT
Temp
°C
App
Temp
°C
Dew
Point
Rel
Hum
%
Delta-T
°C
Wind Press
QNH
hPa
Press
MSL
hPa
Rain
since 9 am
mm
Dir
 
Spd
km/h
Gust
km/h
Spd
kts
Gust
kts
21/11:30pm 21.6 19.7 7.4 40 7.4 SSW 7 7 4 4 - - 0.0

Other Formats:

Comma delimited format used in spreadsheet applications
http://www.bom.gov.au/fwo/IDN60801/IDN60801.95705.axf

JavaScript Object Notation format (JSON) in row-major order
http://www.bom.gov.au/fwo/IDN60801/IDN60801.95705.json